»·PEaware :: SWA1821 KSAN-KSFO

SWA1821 :: KSAN-KSFO

FLIGHT INFORMATION

Flight Status: Arrived
Operator:
Southwest Airlines
More flights by this operator :: More flights under this callsign
Pilot: Vasiliy S. (4053)
Aircraft: BOEING 737-700
(B737)
More flights by this aircraft type
Origin: KSAN San Diego Intl-Lindbergh
United States
Destination: KSFO San Francisco Intl
United States
More flights between these airports :: More routes between these airports
Route: PADRZ2 IKAYE RIZIN SPLNT STOKD SERFR SERFR3
File this flight plan on PilotEdge
Remarks: RMK / SIMBRIEF
Altitude:
(Current/Filed)
40,000ft
Speed:
(Current/Filed)
449kts
Departed: 13-Aug-19 04:25 PM
Arrived: 13-Aug-19 05:30 PM
Distance/Time
Traveled:
388nm/1:05
Distance/Time
To Go:
Arrived

Flight Plot

Page will automatically refresh every two minutes.

Flight plan parsing failed; only flown route is shown


Map Options




Map Legend


Flown Route
Filed Route
Departure Airport
Arrival Airport
Navaid (VOR, NDB)
Fix

Horizontal Profiles

Position Reports

Time Latitude Longitude Heading Altitude Ground
Speed
13-Aug-19 15:06 32.733404 -117.197762 283 23ft 0kts
13-Aug-19 15:07 32.733404 -117.197762 283 23ft 0kts
13-Aug-19 15:08 32.733404 -117.197762 283 23ft 0kts
13-Aug-19 15:09 32.733404 -117.197762 283 23ft 0kts
13-Aug-19 15:10 32.733404 -117.197762 283 23ft 0kts
13-Aug-19 15:11 32.733404 -117.197762 283 23ft 0kts
13-Aug-19 15:12 32.733404 -117.197762 283 23ft 0kts
13-Aug-19 15:13 32.733404 -117.197762 283 23ft 0kts
13-Aug-19 15:14 32.733404 -117.197762 283 23ft 0kts
13-Aug-19 15:15 32.733404 -117.197762 283 23ft 0kts
13-Aug-19 15:16 32.733404 -117.197762 283 23ft 0kts
13-Aug-19 15:17 32.733404 -117.197762 283 23ft 0kts
13-Aug-19 15:18 32.733404 -117.197762 283 23ft 0kts
13-Aug-19 15:19 32.733404 -117.197762 283 23ft 0kts
13-Aug-19 15:20 32.733404 -117.197762 283 23ft 0kts
13-Aug-19 15:21 32.733404 -117.197762 283 23ft 0kts
13-Aug-19 15:22 32.733404 -117.197762 283 23ft 0kts
13-Aug-19 15:23 32.733404 -117.197762 283 23ft 0kts
13-Aug-19 15:24 32.733404 -117.197762 283 23ft 0kts
13-Aug-19 15:25 32.733404 -117.197762 283 23ft 0kts
13-Aug-19 15:26 32.733404 -117.197762 283 23ft 0kts
13-Aug-19 15:27 32.733404 -117.197762 283 23ft 0kts
13-Aug-19 15:28 32.733404 -117.197762 283 23ft 0kts
13-Aug-19 15:29 32.733404 -117.197762 283 23ft 0kts
13-Aug-19 15:30 32.733404 -117.197762 283 23ft 0kts
13-Aug-19 15:31 32.733404 -117.197762 283 23ft 0kts
13-Aug-19 15:32 32.733404 -117.197762 283 23ft 0kts
13-Aug-19 15:33 32.733404 -117.197762 283 23ft 0kts
13-Aug-19 15:34 32.733404 -117.197762 283 23ft 0kts
13-Aug-19 15:35 32.733404 -117.197762 283 23ft 0kts
13-Aug-19 15:36 32.733404 -117.197762 283 23ft 0kts
13-Aug-19 15:37 32.733404 -117.197762 283 23ft 0kts
13-Aug-19 15:38 32.733404 -117.197762 283 23ft 0kts
13-Aug-19 15:39 32.733404 -117.197762 283 23ft 0kts
13-Aug-19 15:40 32.733404 -117.197762 283 23ft 0kts
13-Aug-19 15:41 32.733404 -117.197762 283 23ft 0kts
13-Aug-19 15:42 32.733404 -117.197762 283 23ft 0kts
13-Aug-19 15:43 32.733404 -117.197762 283 23ft 0kts
13-Aug-19 15:44 32.733404 -117.197762 283 23ft 0kts
13-Aug-19 15:45 32.733404 -117.197762 283 23ft 0kts
13-Aug-19 15:46 32.733404 -117.197762 283 23ft 0kts
13-Aug-19 15:47 32.733404 -117.197762 283 23ft 0kts
13-Aug-19 15:48 32.733404 -117.197762 283 23ft 0kts
13-Aug-19 15:49 32.733404 -117.197762 283 23ft 0kts
13-Aug-19 15:50 32.733404 -117.197762 283 23ft 0kts
13-Aug-19 15:51 32.733404 -117.197762 283 23ft 0kts
13-Aug-19 15:52 32.733404 -117.197762 283 23ft 0kts
13-Aug-19 15:53 32.733404 -117.197762 283 23ft 0kts
13-Aug-19 15:54 32.733404 -117.197762 283 23ft 0kts
13-Aug-19 15:55 32.733404 -117.197762 283 23ft 0kts
13-Aug-19 15:56 32.733404 -117.197762 283 23ft 0kts
13-Aug-19 15:57 32.733404 -117.197762 283 23ft 0kts
13-Aug-19 15:58 32.733404 -117.197762 283 23ft 0kts
13-Aug-19 15:59 32.733404 -117.197762 283 23ft 0kts
13-Aug-19 16:00 32.733404 -117.197762 283 23ft 0kts
13-Aug-19 16:01 32.733404 -117.197762 283 23ft 0kts
13-Aug-19 16:02 32.733404 -117.197762 283 23ft 0kts
13-Aug-19 16:03 32.733404 -117.197762 283 23ft 0kts
13-Aug-19 16:04 32.733404 -117.197762 283 23ft 0kts
13-Aug-19 16:05 32.733404 -117.197762 283 23ft 0kts
13-Aug-19 16:06 32.733404 -117.197762 283 23ft 0kts
13-Aug-19 16:07 32.733114 -117.197363 355 23ft 2kts
13-Aug-19 16:08 32.732944 -117.197379 18 23ft 0kts
13-Aug-19 16:09 32.732944 -117.197379 18 23ft 0kts
13-Aug-19 16:10 32.732944 -117.197379 18 23ft 0kts
13-Aug-19 16:11 32.732944 -117.197379 18 23ft 0kts
13-Aug-19 16:12 32.732944 -117.197379 18 23ft 0kts
13-Aug-19 16:13 32.732944 -117.197379 18 23ft 0kts
13-Aug-19 16:14 32.732944 -117.197379 18 23ft 0kts
13-Aug-19 16:15 32.732944 -117.197379 18 23ft 0kts
13-Aug-19 16:16 32.732944 -117.197379 18 23ft 0kts
13-Aug-19 16:17 32.734059 -117.195929 104 23ft 14kts
13-Aug-19 16:18 32.732434 -117.189241 106 23ft 23kts
13-Aug-19 16:19 32.730867 -117.182764 105 23ft 20kts
13-Aug-19 16:20 32.729540 -117.177229 106 23ft 0kts
13-Aug-19 16:21 32.729499 -117.176753 85 23ft 4kts
13-Aug-19 16:22 32.729508 -117.176673 81 23ft 0kts
13-Aug-19 16:23 32.730160 -117.175531 283 23ft 2kts
13-Aug-19 16:24 32.737029 -117.204686 288 784ft 151kts
13-Aug-19 16:25 32.758320 -117.248207 305 2825ft 204kts
13-Aug-19 16:26 32.799224 -117.315975 305 5473ft 276kts
13-Aug-19 16:27 32.845752 -117.393479 303 9210ft 297kts
13-Aug-19 16:28 32.898787 -117.477075 312 11789ft 350kts
13-Aug-19 16:29 32.960713 -117.570643 303 14727ft 369kts
13-Aug-19 16:30 33.024134 -117.667811 305 16200ft 374kts
13-Aug-19 16:31 33.094239 -117.761808 318 19231ft 390kts
13-Aug-19 16:32 33.178973 -117.846737 317 21912ft 404kts
13-Aug-19 16:33 33.261220 -117.940631 313 24281ft 416kts
13-Aug-19 16:34 33.344130 -118.040895 313 26394ft 429kts
13-Aug-19 16:35 33.429280 -118.143469 313 28213ft 441kts
13-Aug-19 16:36 33.517009 -118.248575 313 29829ft 451kts
13-Aug-19 16:37 33.606489 -118.356294 312 31257ft 461kts
13-Aug-19 16:38 33.697062 -118.465753 312 32926ft 458kts
13-Aug-19 16:39 33.768467 -118.552310 312 34280ft 454kts
13-Aug-19 16:40 33.857106 -118.660067 311 35702ft 451kts
13-Aug-19 16:41 33.944925 -118.766958 311 37003ft 448kts
13-Aug-19 16:42 34.032234 -118.873765 311 38142ft 446kts
13-Aug-19 16:43 34.118931 -118.980361 310 39163ft 443kts
13-Aug-19 16:44 34.189515 -119.100204 298 39999ft 437kts
13-Aug-19 16:45 34.253678 -119.224968 298 40020ft 436kts
13-Aug-19 16:46 34.318004 -119.350231 298 40030ft 437kts
13-Aug-19 16:47 34.381714 -119.475359 298 40041ft 437kts
13-Aug-19 16:48 34.458125 -119.591001 311 40037ft 443kts
13-Aug-19 16:49 34.544681 -119.697458 311 40031ft 443kts
13-Aug-19 16:50 34.630967 -119.804085 311 40034ft 443kts
13-Aug-19 16:51 34.717395 -119.910689 311 40018ft 443kts
13-Aug-19 16:52 34.803674 -120.017638 311 40015ft 443kts
13-Aug-19 16:53 34.890196 -120.125126 311 40022ft 443kts
13-Aug-19 16:54 34.976102 -120.232429 311 40023ft 443kts
13-Aug-19 16:55 35.062092 -120.340396 311 40024ft 443kts
13-Aug-19 16:56 35.151060 -120.444522 315 40022ft 444kts
13-Aug-19 16:57 35.242305 -120.546421 315 40021ft 444kts
13-Aug-19 16:58 35.333267 -120.648323 315 40017ft 443kts
13-Aug-19 16:59 35.423887 -120.750898 314 40007ft 443kts
13-Aug-19 17:00 35.516894 -120.850745 321 39995ft 445kts
13-Aug-19 17:02 35.616054 -120.941922 320 39991ft 445kts
13-Aug-19 17:03 35.714733 -121.033774 320 39984ft 445kts
13-Aug-19 17:04 35.813501 -121.125828 321 38825ft 443kts
13-Aug-19 17:05 35.911640 -121.217532 321 36127ft 445kts
13-Aug-19 17:06 36.009203 -121.309461 322 33894ft 434kts
13-Aug-19 17:07 36.105267 -121.395630 327 31893ft 421kts
13-Aug-19 17:08 36.203787 -121.471143 328 29957ft 410kts
13-Aug-19 17:09 36.299284 -121.545169 328 28040ft 399kts
13-Aug-19 17:10 36.391741 -121.617637 328 26124ft 388kts
13-Aug-19 17:11 36.481799 -121.688496 327 24245ft 378kts
13-Aug-19 17:12 36.569601 -121.757662 327 22393ft 369kts
13-Aug-19 17:13 36.655073 -121.825452 327 20558ft 359kts
13-Aug-19 17:14 36.739267 -121.889507 335 18724ft 350kts
13-Aug-19 17:15 36.832413 -121.919660 346 16913ft 342kts
13-Aug-19 17:16 36.924037 -121.945164 346 15052ft 335kts
13-Aug-19 17:17 37.010197 -121.974886 341 14001ft 304kts
13-Aug-19 17:18 37.090123 -122.006686 341 12405ft 297kts
13-Aug-19 17:19 37.167601 -122.037181 342 10870ft 288kts
13-Aug-19 17:20 37.243282 -122.066901 342 9333ft 279kts
13-Aug-19 17:21 37.314551 -122.094929 342 8318ft 254kts
13-Aug-19 17:22 37.381330 -122.121145 343 6942ft 242kts
13-Aug-19 17:22 37.433831 -122.140506 342 5429ft 229kts
13-Aug-19 17:24 37.501561 -122.166116 340 3771ft 201kts
13-Aug-19 17:25 37.543989 -122.195085 308 3141ft 162kts
13-Aug-19 17:25 37.561510 -122.237164 295 2665ft 160kts
13-Aug-19 17:27 37.585612 -122.295906 295 1530ft 154kts
13-Aug-19 17:28 37.602743 -122.337042 297 503ft 120kts
13-Aug-19 17:28 37.615280 -122.366770 296 22ft 99kts
13-Aug-19 17:30 37.619460 -122.379585 228 21ft 6kts
13-Aug-19 17:30 37.617844 -122.379508 167 21ft 8kts
13-Aug-19 17:31 37.616277 -122.379886 209 21ft 0kts
13-Aug-19 17:33 37.614693 -122.380932 204 21ft 11kts
13-Aug-19 17:33 37.612225 -122.382630 209 21ft 4kts
13-Aug-19 17:34 37.611234 -122.385315 254 21ft 8kts
13-Aug-19 17:35 37.612041 -122.387662 338 21ft 5kts
13-Aug-19 17:36 37.612939 -122.387697 11 21ft 6kts
13-Aug-19 17:37 37.613425 -122.388268 298 21ft 0kts
13-Aug-19 17:38 37.613425 -122.388268 298 21ft 0kts
13-Aug-19 17:39 37.613425 -122.388268 298 21ft 0kts
13-Aug-19 17:40 37.613425 -122.388268 298 21ft 0kts

Navigation Log

Ident Type
Flight plan parsing failed, navigation log unavailable